Time;durP1;ratioP1;P1;durP2;ratioP2;P2;SDS_P1;SDS_P2;PMS_P1;PMS_P2;Temp;Humidity;BMP_temperature;BMP_pressure;BME280_temperature;BME280_humidity;BME280_pressure;Samples;Min_cycle;Max_cycle;Signal;HPM_P1;HPM_P2
2021/08/02 00:01:28;;;;;;;6.05;5.35;;;16.20;1.00;;;;;;4990458;28;20041;-77
2021/08/02 00:04:06;;;;;;;8.55;5.18;;;16.10;1.00;;;;;;4989803;28;20046;-77
2021/08/02 00:06:52;;;;;;;7.90;5.20;;;16.00;1.00;;;;;;4989571;28;20093;-77
2021/08/02 00:09:23;;;;;;;5.95;4.68;;;16.00;1.00;;;;;;4989998;28;20113;-77
2021/08/02 00:12:00;;;;;;;9.93;5.45;;;16.10;1.00;;;;;;4989579;28;20129;-77
2021/08/02 00:14:26;;;;;;;6.80;4.93;;;16.10;1.00;;;;;;4988762;28;20085;-77
2021/08/02 00:16:53;;;;;;;6.10;5.30;;;16.20;1.00;;;;;;4989949;28;20041;-77
2021/08/02 00:19:19;;;;;;;5.72;5.18;;;16.20;1.00;;;;;;4990027;28;20163;-77
2021/08/02 00:21:46;;;;;;;6.78;4.55;;;16.20;1.00;;;;;;4989130;28;20121;-78
2021/08/02 00:24:13;;;;;;;6.35;4.65;;;15.90;1.00;;;;;;4990040;28;20037;-78
2021/08/02 00:26:40;;;;;;;6.80;4.47;;;15.90;1.00;;;;;;4989617;28;20041;-77
2021/08/02 00:29:06;;;;;;;6.10;4.18;;;15.70;1.00;;;;;;4973434;28;20022;-77
2021/08/02 00:31:32;;;;;;;5.18;4.40;;;15.70;1.00;;;;;;4991297;28;20451;-77
2021/08/02 00:33:57;;;;;;;6.47;5.25;;;15.70;1.00;;;;;;4989068;28;20034;-77
2021/08/02 00:36:33;;;;;;;6.05;4.70;;;15.70;1.00;;;;;;4989957;28;20126;-78
2021/08/02 00:39:07;;;;;;;5.93;5.28;;;15.70;1.00;;;;;;5046008;28;20052;-77
2021/08/02 00:41:45;;;;;;;8.02;6.38;;;15.80;1.00;;;;;;5069496;28;20078;-78
2021/08/02 00:44:32;;;;;;;7.13;6.20;;;16.00;1.00;;;;;;5054255;28;20108;-77
2021/08/02 00:47:03;;;;;;;7.40;5.55;;;16.10;1.00;;;;;;5069510;28;20119;-77
2021/08/02 00:49:30;;;;;;;6.25;5.20;;;15.70;1.00;;;;;;5070966;28;20028;-77
2021/08/02 00:51:59;;;;;;;5.50;4.70;;;15.70;1.00;;;;;;5069735;28;20027;-77
2021/08/02 00:54:28;;;;;;;6.70;4.75;;;15.60;1.00;;;;;;5069364;28;20395;-77
2021/08/02 00:57:00;;;;;;;5.82;4.57;;;15.60;1.00;;;;;;5071040;28;20027;-78
2021/08/02 00:59:29;;;;;;;5.85;5.18;;;15.50;1.00;;;;;;5068027;28;20063;-77
2021/08/02 01:01:56;;;;;;;5.63;4.88;;;15.30;1.00;;;;;;5069600;28;20024;-78
2021/08/02 01:04:25;;;;;;;11.43;5.03;;;15.40;1.00;;;;;;5070952;28;20067;-78
2021/08/02 01:06:53;;;;;;;6.93;4.70;;;15.40;1.00;;;;;;5069120;28;20537;-78
2021/08/02 01:09:21;;;;;;;6.75;4.63;;;15.40;1.00;;;;;;5069219;28;20113;-78
2021/08/02 01:11:49;;;;;;;7.03;4.72;;;15.40;1.00;;;;;;5069505;28;20481;-78
2021/08/02 01:14:17;;;;;;;8.05;5.70;;;15.40;1.00;;;;;;5069625;28;20077;-78
2021/08/02 01:16:44;;;;;;;7.60;5.13;;;15.30;1.00;;;;;;5070693;28;20096;-78
2021/08/02 01:19:11;;;;;;;5.53;4.70;;;15.30;1.00;;;;;;5069476;28;20060;-78
2021/08/02 01:21:39;;;;;;;8.95;4.85;;;15.40;1.00;;;;;;5069035;28;20039;-78
2021/08/02 01:24:11;;;;;;;7.72;4.80;;;15.50;1.00;;;;;;5069276;28;20016;-78
2021/08/02 01:26:43;;;;;;;8.82;4.85;;;15.60;1.00;;;;;;5072374;28;20500;-78
2021/08/02 01:29:46;;;;;;;8.02;5.65;;;15.60;1.00;;;;;;5056799;28;20098;-78
2021/08/02 01:32:16;;;;;;;10.73;5.10;;;15.50;1.00;;;;;;5057544;28;20025;-78
2021/08/02 01:34:42;;;;;;;8.57;5.30;;;15.50;1.00;;;;;;5074023;28;20111;-77
2021/08/02 01:37:07;;;;;;;13.35;5.50;;;15.50;1.00;;;;;;5071766;28;20020;-78
2021/08/02 01:39:34;;;;;;;8.57;5.80;;;15.40;1.00;;;;;;5070996;28;20031;-78
2021/08/02 01:42:01;;;;;;;13.90;5.18;;;15.40;1.00;;;;;;5072944;28;20075;-78
2021/08/02 01:44:26;;;;;;;10.88;5.97;;;15.40;1.00;;;;;;5073134;28;20373;-78
2021/08/02 01:47:03;;;;;;;6.20;5.60;;;15.50;1.00;;;;;;5072799;28;20078;-78
2021/08/02 01:49:40;;;;;;;8.48;5.50;;;15.40;1.00;;;;;;5073639;28;20075;-77
2021/08/02 01:52:18;;;;;;;5.97;5.30;;;15.30;1.00;;;;;;5072640;28;20024;-78
2021/08/02 01:54:56;;;;;;;7.13;5.72;;;15.30;1.00;;;;;;5072721;28;20054;-78
2021/08/02 01:57:38;;;;;;;7.43;6.45;;;15.20;1.00;;;;;;5072050;28;20028;-78
2021/08/02 02:00:14;;;;;;;7.85;5.97;;;15.30;1.00;;;;;;5072383;28;20064;-78
2021/08/02 02:02:44;;;;;;;6.60;5.93;;;15.20;1.00;;;;;;5072404;28;20520;-77
2021/08/02 02:05:14;;;;;;;7.70;6.00;;;15.20;1.00;;;;;;5057855;28;20107;-78
2021/08/02 02:07:48;;;;;;;6.32;5.72;;;15.20;1.00;;;;;;5070079;28;20063;-77
2021/08/02 02:10:15;;;;;;;6.18;5.57;;;15.20;1.00;;;;;;5073469;28;20115;-78
2021/08/02 02:12:43;;;;;;;10.23;5.85;;;15.00;1.00;;;;;;5058805;28;20094;-78
2021/08/02 02:15:10;;;;;;;6.97;6.25;;;15.00;1.00;;;;;;5070251;28;20028;-77
2021/08/02 02:17:37;;;;;;;9.55;6.22;;;15.00;1.00;;;;;;5052161;28;20020;-78
2021/08/02 02:20:05;;;;;;;10.13;6.88;;;14.80;1.00;;;;;;5071960;28;20021;-78
2021/08/02 02:22:31;;;;;;;7.10;6.40;;;14.80;1.00;;;;;;5074053;28;20039;-77
2021/08/02 02:24:57;;;;;;;7.90;6.15;;;14.80;1.00;;;;;;5072123;28;20103;-78
2021/08/02 02:27:24;;;;;;;7.88;6.15;;;14.80;1.00;;;;;;5071791;28;20055;-78
2021/08/02 02:29:50;;;;;;;7.65;6.10;;;14.80;1.00;;;;;;5071585;28;20055;-77
2021/08/02 02:32:18;;;;;;;6.13;5.30;;;14.80;1.00;;;;;;5054805;28;20495;-78
2021/08/02 02:34:48;;;;;;;5.65;5.15;;;14.80;1.00;;;;;;5072818;28;20041;-78
2021/08/02 02:37:15;;;;;;;5.47;4.97;;;14.80;1.00;;;;;;5072287;28;20111;-78
2021/08/02 02:39:41;;;;;;;5.72;5.13;;;14.90;1.00;;;;;;5071466;28;20041;-78
2021/08/02 02:42:08;;;;;;;6.15;4.75;;;14.90;1.00;;;;;;5072217;28;20051;-78
2021/08/02 02:44:36;;;;;;;5.72;5.22;;;14.90;1.00;;;;;;5071401;28;20028;-78
2021/08/02 02:47:03;;;;;;;6.25;5.20;;;14.90;1.00;;;;;;5071177;28;20075;-78
2021/08/02 02:49:31;;;;;;;7.10;4.63;;;14.80;1.00;;;;;;5073325;28;20115;-78
2021/08/02 02:51:57;;;;;;;5.40;4.90;;;14.70;1.00;;;;;;5071367;28;20108;-78
2021/08/02 02:54:24;;;;;;;5.75;4.93;;;14.70;1.00;;;;;;5070647;28;20440;-78
2021/08/02 02:56:53;;;;;;;5.82;4.68;;;14.70;1.00;;;;;;5070178;28;20024;-77
2021/08/02 02:59:19;;;;;;;5.20;4.57;;;14.70;1.00;;;;;;5071094;28;20104;-78
2021/08/02 03:01:47;;;;;;;5.82;4.95;;;14.70;1.00;;;;;;5072391;28;20064;-78
2021/08/02 03:04:14;;;;;;;8.23;5.03;;;14.70;1.00;;;;;;5071969;28;20408;-78
2021/08/02 03:06:42;;;;;;;10.00;5.82;;;14.70;1.00;;;;;;5072416;28;20017;-78
2021/08/02 03:09:11;;;;;;;7.22;4.97;;;14.60;1.00;;;;;;5070987;28;20032;-77
2021/08/02 03:11:38;;;;;;;6.68;5.60;;;14.70;1.00;;;;;;5071702;28;20119;-78
2021/08/02 03:14:04;;;;;;;5.85;5.25;;;14.70;1.00;;;;;;5053172;28;20032;-77
2021/08/02 03:16:30;;;;;;;7.28;5.45;;;14.70;1.00;;;;;;5059120;28;20035;-78
2021/08/02 03:18:55;;;;;;;6.55;5.35;;;14.80;1.00;;;;;;5070938;28;20082;-77
2021/08/02 03:21:21;;;;;;;5.68;5.07;;;14.80;1.00;;;;;;5070690;28;20089;-78
2021/08/02 03:24:01;;;;;;;5.63;4.75;;;14.80;1.00;;;;;;5075117;28;20028;-78
2021/08/02 03:26:43;;;;;;;6.30;4.55;;;14.60;1.00;;;;;;5070819;28;20032;-77
2021/08/02 03:29:19;;;;;;;5.10;4.70;;;14.50;1.00;;;;;;5054490;28;20032;-78
2021/08/02 03:31:50;;;;;;;6.35;4.25;;;14.60;1.00;;;;;;5069201;28;20408;-78
2021/08/02 03:34:23;;;;;;;5.10;4.20;;;14.60;1.00;;;;;;5071579;28;20109;-78
2021/08/02 03:36:50;;;;;;;4.53;4.10;;;14.60;1.00;;;;;;5068959;28;20139;-78
2021/08/02 03:39:18;;;;;;;4.60;4.20;;;14.50;1.00;;;;;;5070968;28;20037;-78
2021/08/02 03:41:44;;;;;;;7.38;4.72;;;14.40;1.00;;;;;;5070353;28;20059;-78
2021/08/02 03:44:12;;;;;;;6.63;4.80;;;14.40;1.00;;;;;;5069682;28;20408;-78
2021/08/02 03:46:39;;;;;;;6.47;4.70;;;14.30;1.00;;;;;;5068731;28;20029;-78
2021/08/02 03:49:05;;;;;;;8.38;4.50;;;14.30;1.00;;;;;;5070420;28;20456;-78
2021/08/02 03:51:35;;;;;;;6.07;4.63;;;14.40;1.00;;;;;;5070513;28;20043;-78
2021/08/02 03:54:02;;;;;;;5.18;4.38;;;14.40;1.00;;;;;;5070154;28;20040;-78
2021/08/02 03:56:28;;;;;;;5.53;4.43;;;14.50;1.00;;;;;;5070226;28;20032;-78
2021/08/02 03:58:53;;;;;;;5.47;4.97;;;14.50;1.00;;;;;;5070557;28;20039;-77
2021/08/02 04:01:19;;;;;;;5.10;4.32;;;14.40;1.00;;;;;;5071777;28;20040;-77
2021/08/02 04:03:44;;;;;;;5.90;4.55;;;14.40;1.00;;;;;;5070200;28;20027;-78
2021/08/02 04:06:10;;;;;;;5.35;4.85;;;14.40;1.00;;;;;;5069920;28;20090;-77
2021/08/02 04:08:36;;;;;;;4.85;4.45;;;14.30;1.00;;;;;;5070054;28;20031;-77
2021/08/02 04:11:02;;;;;;;5.15;4.65;;;14.40;1.00;;;;;;5052467;28;20423;-78
2021/08/02 04:13:28;;;;;;;5.50;4.75;;;14.30;1.00;;;;;;5070396;28;20024;-78
2021/08/02 04:15:54;;;;;;;5.45;4.93;;;14.20;1.00;;;;;;5055037;28;20078;-78
2021/08/02 04:18:19;;;;;;;5.38;4.13;;;14.20;1.00;;;;;;5069599;28;20115;-78
2021/08/02 04:20:45;;;;;;;5.18;4.57;;;14.20;1.00;;;;;;5069622;28;20094;-78
2021/08/02 04:23:11;;;;;;;5.30;4.80;;;14.20;1.00;;;;;;5070597;28;20503;-78
2021/08/02 04:25:37;;;;;;;5.70;4.63;;;14.20;1.00;;;;;;5071586;28;20033;-78
2021/08/02 04:28:03;;;;;;;8.63;4.43;;;14.20;1.00;;;;;;5069123;28;20116;-78
2021/08/02 04:30:29;;;;;;;6.38;4.30;;;14.20;1.00;;;;;;5069926;28;20041;-78
2021/08/02 04:32:54;;;;;;;4.95;4.45;;;14.20;1.00;;;;;;5070475;28;20028;-77
2021/08/02 04:35:20;;;;;;;7.95;5.10;;;14.20;1.00;;;;;;5069646;28;20170;-78
2021/08/02 04:37:46;;;;;;;6.60;5.10;;;14.20;1.00;;;;;;5070956;28;20021;-77
2021/08/02 04:40:12;;;;;;;6.78;4.47;;;14.10;1.00;;;;;;5057006;28;20381;-78
2021/08/02 04:42:38;;;;;;;7.80;4.95;;;14.10;1.00;;;;;;5069007;28;20107;-78
2021/08/02 04:45:06;;;;;;;4.80;4.30;;;14.10;1.00;;;;;;5069100;28;20028;-78
2021/08/02 04:47:32;;;;;;;5.18;4.28;;;14.20;1.00;;;;;;5069295;28;20032;-78
2021/08/02 04:49:57;;;;;;;6.05;4.30;;;14.20;1.00;;;;;;5070328;28;20564;-78
2021/08/02 04:52:23;;;;;;;9.77;5.20;;;14.20;1.00;;;;;;5069657;28;20440;-78
2021/08/02 04:54:49;;;;;;;5.85;4.07;;;14.20;1.00;;;;;;5067585;28;20036;-78
2021/08/02 04:57:15;;;;;;;5.53;4.10;;;14.20;1.00;;;;;;5069295;28;20024;-78
2021/08/02 04:59:42;;;;;;;7.20;4.30;;;14.20;1.00;;;;;;5070324;28;20399;-79
2021/08/02 05:02:08;;;;;;;6.05;4.10;;;14.10;1.00;;;;;;5057024;28;20025;-77
2021/08/02 05:04:35;;;;;;;4.75;3.95;;;14.20;1.00;;;;;;5075802;28;20115;-78
2021/08/02 05:07:00;;;;;;;4.03;3.65;;;14.30;1.00;;;;;;5073133;28;20421;-77
2021/08/02 05:09:26;;;;;;;4.35;3.72;;;14.20;1.00;;;;;;5073524;28;20048;-77
2021/08/02 05:11:52;;;;;;;5.18;3.92;;;14.20;1.00;;;;;;5072992;28;20376;-77
2021/08/02 05:14:18;;;;;;;4.63;3.72;;;14.30;1.00;;;;;;5073910;28;20037;-77
2021/08/02 05:16:44;;;;;;;5.35;4.35;;;14.40;1.00;;;;;;5075262;28;20365;-77
2021/08/02 05:19:10;;;;;;;4.28;3.88;;;14.40;1.00;;;;;;5072301;28;20480;-77
2021/08/02 05:21:36;;;;;;;5.50;3.88;;;14.40;1.00;;;;;;5071570;28;20017;-78
2021/08/02 05:24:02;;;;;;;4.43;3.80;;;14.40;1.00;;;;;;5072909;28;20029;-77
2021/08/02 05:26:29;;;;;;;6.60;3.65;;;14.40;1.00;;;;;;5072548;28;20575;-77
2021/08/02 05:28:55;;;;;;;6.22;4.22;;;14.50;1.00;;;;;;5073530;28;20017;-79
2021/08/02 05:31:21;;;;;;;5.95;4.32;;;14.60;1.00;;;;;;5072927;28;20472;-79
2021/08/02 05:33:46;;;;;;;4.40;4.00;;;14.60;1.00;;;;;;5071712;28;20033;-81
2021/08/02 05:36:12;;;;;;;5.78;4.40;;;14.60;1.00;;;;;;5073269;28;20123;-79
2021/08/02 05:38:39;;;;;;;4.90;4.35;;;14.60;1.00;;;;;;5054923;28;20048;-80
2021/08/02 05:41:05;;;;;;;6.72;4.20;;;14.60;1.00;;;;;;5072861;28;20070;-79
2021/08/02 05:43:31;;;;;;;5.53;4.50;;;14.60;1.00;;;;;;5074794;28;20527;-80
2021/08/02 05:45:57;;;;;;;5.22;4.22;;;14.70;1.00;;;;;;5072719;28;20053;-79
2021/08/02 05:48:22;;;;;;;6.75;4.22;;;14.70;1.00;;;;;;5072978;28;20476;-79
2021/08/02 05:50:48;;;;;;;5.63;4.47;;;14.70;1.00;;;;;;5072998;28;20407;-79
2021/08/02 05:53:14;;;;;;;6.13;4.47;;;14.80;1.00;;;;;;5072889;28;20044;-79
2021/08/02 05:55:39;;;;;;;7.80;4.25;;;14.90;1.00;;;;;;5074540;28;20108;-80
2021/08/02 05:58:05;;;;;;;5.25;4.75;;;14.90;1.00;;;;;;5072574;28;20054;-80
2021/08/02 06:00:31;;;;;;;5.85;4.93;;;15.00;1.00;;;;;;5072737;28;20472;-80
2021/08/02 06:02:56;;;;;;;6.53;5.10;;;15.10;1.00;;;;;;5072555;28;20017;-80
2021/08/02 06:05:22;;;;;;;6.68;4.93;;;15.10;1.00;;;;;;5072656;28;20028;-79
2021/08/02 06:07:47;;;;;;;6.82;6.13;;;15.20;1.00;;;;;;5073706;28;20028;-80
2021/08/02 06:10:13;;;;;;;11.48;9.98;;;15.30;1.00;;;;;;5070976;28;20523;-80
2021/08/02 06:12:39;;;;;;;7.18;5.03;;;15.50;1.00;;;;;;5064670;28;20519;-80
2021/08/02 06:15:06;;;;;;;8.68;5.13;;;15.60;1.00;;;;;;5054899;28;20060;-80
2021/08/02 06:17:33;;;;;;;5.85;4.72;;;15.60;1.00;;;;;;5053402;28;20036;-81
2021/08/02 06:19:59;;;;;;;6.75;5.53;;;15.70;1.00;;;;;;5055279;28;20039;-79
2021/08/02 06:22:24;;;;;;;7.65;5.95;;;15.70;1.00;;;;;;5072792;28;20036;-80
2021/08/02 06:24:50;;;;;;;6.90;5.72;;;15.70;1.00;;;;;;5058500;28;20021;-80
2021/08/02 06:27:16;;;;;;;6.28;5.38;;;15.80;1.00;;;;;;5071974;28;20051;-78
2021/08/02 06:29:41;;;;;;;6.40;5.80;;;15.90;1.00;;;;;;5071406;28;20111;-80
2021/08/02 06:32:08;;;;;;;7.78;5.45;;;15.90;1.00;;;;;;5083940;22;20045;-80
2021/08/02 06:34:34;;;;;;;7.18;5.45;;;16.00;1.00;;;;;;5057571;28;20048;-83
2021/08/02 06:36:59;;;;;;;9.32;5.30;;;16.00;1.00;;;;;;5055093;28;20094;-80
2021/08/02 06:39:26;;;;;;;6.20;5.53;;;16.10;1.00;;;;;;5054337;28;20500;-80
2021/08/02 06:41:51;;;;;;;11.27;7.07;;;16.20;1.00;;;;;;5056137;28;20024;-80
2021/08/02 06:44:17;;;;;;;8.15;5.88;;;16.30;1.00;;;;;;5052146;28;20044;-92
2021/08/02 06:46:43;;;;;;;7.40;5.97;;;16.40;1.00;;;;;;5038665;28;20075;-78
2021/08/02 06:49:09;;;;;;;7.55;6.22;;;16.60;1.00;;;;;;5036667;28;20386;-78
2021/08/02 06:51:35;;;;;;;7.45;6.10;;;16.60;1.00;;;;;;5053578;28;20021;-77
2021/08/02 06:54:00;;;;;;;7.00;5.85;;;16.70;1.00;;;;;;5055880;28;20039;-75
2021/08/02 06:56:26;;;;;;;6.35;5.40;;;16.70;1.00;;;;;;5053748;28;20013;-78
2021/08/02 06:58:52;;;;;;;6.03;5.05;;;16.60;1.00;;;;;;5054474;28;20048;-87
2021/08/02 07:01:18;;;;;;;7.72;6.05;;;16.80;1.00;;;;;;5056832;28;20033;-82
2021/08/02 07:03:43;;;;;;;9.05;5.65;;;16.70;1.00;;;;;;5055456;28;20525;-81
2021/08/02 07:06:09;;;;;;;5.70;4.75;;;16.60;1.00;;;;;;5055414;28;20017;-82
2021/08/02 07:08:38;;;;;;;7.28;5.22;;;16.80;1.00;;;;;;5053704;28;20025;-81
2021/08/02 07:11:06;;;;;;;8.32;5.63;;;16.90;1.00;;;;;;5051470;28;20033;-81
2021/08/02 07:13:32;;;;;;;5.65;5.10;;;17.00;1.00;;;;;;5057334;28;20488;-80
2021/08/02 07:16:00;;;;;;;8.35;5.45;;;17.00;1.00;;;;;;5055560;28;20501;-82
2021/08/02 07:18:26;;;;;;;5.97;5.00;;;17.10;1.00;;;;;;5054882;28;20041;-82
2021/08/02 07:20:52;;;;;;;10.52;5.30;;;17.30;1.00;;;;;;5050704;28;20106;-81
2021/08/02 07:23:18;;;;;;;6.53;5.22;;;17.30;1.00;;;;;;5066023;28;20509;-83
2021/08/02 07:25:43;;;;;;;5.93;4.97;;;17.50;1.00;;;;;;5056099;28;20025;-82
2021/08/02 07:28:09;;;;;;;7.13;4.55;;;17.50;1.00;;;;;;5054125;28;20033;-82
2021/08/02 07:30:36;;;;;;;5.32;4.43;;;17.70;1.00;;;;;;5039148;28;20020;-95
2021/08/02 07:33:02;;;;;;;5.30;3.92;;;17.90;1.00;;;;;;5054398;28;20052;-82
2021/08/02 07:35:29;;;;;;;5.00;4.32;;;17.90;1.00;;;;;;5052389;28;20028;-82
2021/08/02 07:37:55;;;;;;;4.60;4.00;;;17.90;1.00;;;;;;5052658;28;20033;-81
2021/08/02 07:40:21;;;;;;;4.35;3.15;;;17.90;1.00;;;;;;5055041;28;20433;-81
2021/08/02 07:42:47;;;;;;;5.93;3.28;;;18.00;1.00;;;;;;5037923;28;20028;-80
2021/08/02 07:45:12;;;;;;;5.10;3.67;;;18.00;1.00;;;;;;5054900;28;20100;-79
2021/08/02 07:47:38;;;;;;;5.32;3.30;;;18.10;1.00;;;;;;5053787;28;20089;-81
2021/08/02 07:50:05;;;;;;;4.90;3.08;;;18.00;1.00;;;;;;5050313;28;20031;-80
2021/08/02 07:52:32;;;;;;;6.07;3.28;;;18.10;1.00;;;;;;5055545;28;20060;-81
2021/08/02 07:54:59;;;;;;;3.58;3.28;;;18.20;1.00;;;;;;5053704;28;20028;-81
2021/08/02 07:57:24;;;;;;;4.90;3.30;;;18.10;1.00;;;;;;5037486;28;20032;-82
2021/08/02 07:59:50;;;;;;;4.50;3.20;;;18.10;1.00;;;;;;5062750;28;20411;-82
2021/08/02 08:02:16;;;;;;;5.53;3.47;;;18.30;1.00;;;;;;5050667;28;20087;-82
2021/08/02 08:04:41;;;;;;;6.68;3.20;;;18.70;1.00;;;;;;5037238;28;20037;-82
2021/08/02 08:07:07;;;;;;;4.93;3.50;;;18.60;1.00;;;;;;5053180;28;20033;-82
2021/08/02 08:09:33;;;;;;;7.30;3.38;;;18.50;1.00;;;;;;5052489;28;20510;-82
2021/08/02 08:11:59;;;;;;;5.28;3.13;;;18.50;1.00;;;;;;5034692;28;20078;-81
2021/08/02 08:14:25;;;;;;;4.03;2.70;;;18.60;1.00;;;;;;5051648;28;20029;-82
2021/08/02 08:16:51;;;;;;;9.27;2.85;;;18.80;1.00;;;;;;5053390;28;20032;-82
2021/08/02 08:19:16;;;;;;;5.82;2.92;;;18.70;1.00;;;;;;5054661;28;20451;-85
2021/08/02 08:21:42;;;;;;;5.45;3.17;;;19.10;1.00;;;;;;5053827;28;20036;-83
2021/08/02 08:24:08;;;;;;;3.05;2.60;;;19.30;1.00;;;;;;5054047;28;20067;-83
2021/08/02 08:26:35;;;;;;;3.55;2.17;;;19.30;1.00;;;;;;5052891;28;20021;-83
2021/08/02 08:29:01;;;;;;;3.60;2.20;;;19.50;1.00;;;;;;5051337;28;20036;-83
2021/08/02 08:31:27;;;;;;;3.00;2.65;;;19.60;1.00;;;;;;5055551;28;20017;-83
2021/08/02 08:33:52;;;;;;;4.35;2.72;;;19.40;1.00;;;;;;5053157;28;20390;-83
2021/08/02 08:36:18;;;;;;;3.00;2.25;;;19.40;1.00;;;;;;5053019;28;20140;-82
2021/08/02 08:38:44;;;;;;;5.10;2.20;;;19.60;1.00;;;;;;5053636;28;20636;-81
2021/08/02 08:41:13;;;;;;;3.38;2.10;;;19.80;1.00;;;;;;5049801;28;20033;-82
2021/08/02 08:43:39;;;;;;;3.22;2.00;;;19.80;1.00;;;;;;5055628;28;20044;-82
2021/08/02 08:46:05;;;;;;;3.00;2.13;;;19.90;1.00;;;;;;5051193;28;20025;-80
2021/08/02 08:48:31;;;;;;;4.50;1.98;;;19.90;1.00;;;;;;5049289;28;20144;-82
2021/08/02 08:50:57;;;;;;;4.25;2.45;;;19.90;1.00;;;;;;5042718;28;20044;-82
2021/08/02 08:53:23;;;;;;;5.10;2.38;;;19.90;1.00;;;;;;5034285;28;20044;-82
2021/08/02 08:55:49;;;;;;;5.22;2.30;;;19.70;1.00;;;;;;5036211;28;20025;-81
2021/08/02 08:58:14;;;;;;;2.50;1.63;;;19.80;1.00;;;;;;5036577;28;20039;-82
2021/08/02 09:00:41;;;;;;;2.65;1.80;;;20.20;1.00;;;;;;5053781;28;20063;-82
2021/08/02 09:03:12;;;;;;;3.60;2.67;;;20.30;99.90;;;;;;5053889;28;20588;-82
2021/08/02 09:05:38;;;;;;;2.70;1.83;;;20.40;99.90;;;;;;5052797;28;20020;-83
2021/08/02 09:08:05;;;;;;;8.00;5.35;;;20.70;99.90;;;;;;5050305;28;20083;-82
2021/08/02 09:10:32;;;;;;;2.75;1.83;;;20.80;99.90;;;;;;5055618;28;20039;-83
2021/08/02 09:13:03;;;;;;;2.15;1.85;;;21.20;99.90;;;;;;5053542;28;20037;-83
2021/08/02 09:15:44;;;;;;;3.10;1.58;;;21.50;99.90;;;;;;5053845;28;20029;-82
2021/08/02 09:18:19;;;;;;;2.47;1.70;;;21.70;99.90;;;;;;5341775;22;20058;-84
2021/08/02 09:20:45;;;;;;;2.53;1.85;;;21.80;99.90;;;;;;5053551;28;20412;-84
2021/08/02 09:23:13;;;;;;;3.05;1.85;;;21.80;99.90;;;;;;5033383;28;20029;-84
2021/08/02 09:25:54;;;;;;;1.75;1.63;;;21.50;99.90;;;;;;5062630;28;20036;-84
2021/08/02 09:28:22;;;;;;;2.60;1.88;;;21.50;99.90;;;;;;5054803;28;20025;-84
2021/08/02 09:31:02;;;;;;;1.77;1.50;;;21.40;99.90;;;;;;5053015;28;20028;-84
2021/08/02 09:33:52;;;;;;;2.95;1.60;;;21.60;99.90;;;;;;5053483;28;20028;-83
2021/08/02 09:36:18;;;;;;;1.52;1.40;;;22.00;99.90;;;;;;5042754;28;20040;-84
2021/08/02 09:38:44;;;;;;;3.10;1.60;;;22.00;99.90;;;;;;5052939;28;20399;-83
2021/08/02 09:41:20;;;;;;;2.72;1.42;;;21.80;99.90;;;;;;5048871;28;20393;-84
2021/08/02 09:43:51;;;;;;;5.45;2.40;;;21.70;99.90;;;;;;5067091;28;20092;-83
2021/08/02 09:46:17;;;;;;;1.60;1.23;;;21.90;99.90;;;;;;5045727;28;20405;-83
2021/08/02 09:48:45;;;;;;;1.73;1.38;;;22.20;99.90;;;;;;5056737;28;20021;-83
2021/08/02 09:51:16;;;;;;;2.10;1.27;;;22.20;99.90;;;;;;5056954;28;20477;-84
2021/08/02 09:53:47;;;;;;;2.70;1.95;;;22.10;99.90;;;;;;5056568;28;20013;-84
2021/08/02 09:56:15;;;;;;;2.33;1.30;;;22.30;99.90;;;;;;5045915;28;20430;-84
2021/08/02 09:58:42;;;;;;;4.30;1.30;;;22.70;99.90;;;;;;5070597;28;20055;-84
2021/08/02 10:01:13;;;;;;;2.25;1.25;;;22.70;99.90;;;;;;5056400;28;20037;-83
2021/08/02 10:03:39;;;;;;;2.67;1.35;;;22.70;99.90;;;;;;5056130;28;20039;-83
2021/08/02 10:06:06;;;;;;;2.40;1.50;;;22.70;99.90;;;;;;5055797;28;20047;-84
2021/08/02 10:08:33;;;;;;;2.70;1.33;;;22.70;99.90;;;;;;5054613;28;20021;-83
2021/08/02 10:10:59;;;;;;;2.22;1.38;;;22.70;99.90;;;;;;5054208;28;20116;-84
2021/08/02 10:13:28;;;;;;;2.60;1.42;;;23.00;99.90;;;;;;5058780;28;20456;-84
2021/08/02 10:15:57;;;;;;;3.35;2.88;;;23.20;99.90;;;;;;5056147;28;20397;-84
2021/08/02 10:18:25;;;;;;;10.00;1.80;;;22.80;99.90;;;;;;5055960;28;20339;-84
2021/08/02 10:21:06;;;;;;;1.42;1.33;;;23.00;99.90;;;;;;5056703;28;20029;-84
2021/08/02 10:23:31;;;;;;;6.82;4.13;;;23.20;99.90;;;;;;5054189;28;20037;-83
2021/08/02 10:25:58;;;;;;;2.65;1.80;;;23.00;99.90;;;;;;5054123;28;20119;-83
2021/08/02 10:28:23;;;;;;;3.33;2.03;;;22.90;99.90;;;;;;5055705;28;20076;-84
2021/08/02 10:31:04;;;;;;;2.55;1.33;;;22.60;99.90;;;;;;5047325;28;20507;-83
2021/08/02 10:33:38;;;;;;;1.67;1.30;;;23.10;99.90;;;;;;5056161;28;20064;-84
2021/08/02 10:36:13;;;;;;;2.28;1.58;;;23.30;99.90;;;;;;5056444;28;20024;-83
2021/08/02 10:38:45;;;;;;;2.35;1.55;;;23.40;99.90;;;;;;5054738;28;20090;-83
2021/08/02 10:41:22;;;;;;;1.40;1.13;;;23.20;99.90;;;;;;5051090;28;20132;-84
2021/08/02 10:43:47;;;;;;;2.70;1.48;;;22.90;99.90;;;;;;5065307;28;20111;-84
2021/08/02 10:46:22;;;;;;;1.20;1.10;;;22.80;99.90;;;;;;5056457;28;20120;-84
2021/08/02 10:48:49;;;;;;;2.85;1.40;;;22.90;99.90;;;;;;5055859;28;20031;-83
2021/08/02 10:51:18;;;;;;;1.33;1.23;;;22.90;99.90;;;;;;5055688;28;20083;-83
2021/08/02 10:53:55;;;;;;;2.47;1.40;;;22.90;99.90;;;;;;5049375;28;20671;-83
2021/08/02 10:56:29;;;;;;;1.50;1.40;;;22.90;99.90;;;;;;5036751;28;20507;-84
2021/08/02 10:58:59;;;;;;;1.40;1.30;;;23.10;99.90;;;;;;5053169;28;20040;-83
2021/08/02 11:01:26;;;;;;;6.38;3.90;;;23.40;99.90;;;;;;5048222;28;20550;-84
2021/08/02 11:03:57;;;;;;;1.67;1.30;;;23.40;99.90;;;;;;5055630;28;20036;-85
2021/08/02 11:06:26;;;;;;;1.40;1.30;;;23.70;99.90;;;;;;5054930;28;20094;-85
2021/08/02 11:08:56;;;;;;;2.35;1.50;;;23.70;99.90;;;;;;5055516;28;20031;-85
2021/08/02 11:11:29;;;;;;;1.95;1.27;;;23.30;99.90;;;;;;5052491;28;20397;-84
2021/08/02 11:14:33;;;;;;;1.92;1.25;;;23.60;99.90;;;;;;5054336;28;20033;-83
2021/08/02 11:16:58;;;;;;;1.50;1.20;;;24.40;99.90;;;;;;5025138;28;20037;-84
2021/08/02 11:19:29;;;;;;;1.73;1.30;;;24.60;99.90;;;;;;5015875;28;20057;-86
2021/08/02 11:22:04;;;;;;;2.30;1.45;;;26.20;99.90;;;;;;5012117;28;20049;-85
2021/08/02 11:24:32;;;;;;;1.70;1.30;;;28.60;99.90;;;;;;5012889;28;20030;-84
2021/08/02 11:27:00;;;;;;;1.73;1.42;;;32.50;99.90;;;;;;5012871;28;20017;-87
2021/08/02 11:29:34;;;;;;;2.80;1.40;;;33.20;99.90;;;;;;5011147;28;20176;-86
2021/08/02 11:32:00;;;;;;;1.70;1.25;;;31.00;99.90;;;;;;5010537;28;20460;-83
2021/08/02 11:34:28;;;;;;;1.75;1.30;;;27.40;99.90;;;;;;4998167;28;20075;-83
2021/08/02 11:37:19;;;;;;;3.17;1.40;;;31.70;99.90;;;;;;5013404;28;20072;-83
2021/08/02 11:39:47;;;;;;;1.77;1.17;;;35.20;99.90;;;;;;5012596;28;20034;-83
2021/08/02 11:42:16;;;;;;;1.27;1.17;;;34.90;99.90;;;;;;4995852;28;20069;-84
2021/08/02 11:44:53;;;;;;;1.85;1.20;;;33.40;99.90;;;;;;5013203;28;20033;-83
2021/08/02 11:47:23;;;;;;;2.17;1.15;;;33.30;99.90;;;;;;5008239;28;20064;-83
2021/08/02 11:49:51;;;;;;;9.35;1.27;;;36.30;99.90;;;;;;5054868;28;20029;-84
2021/08/02 11:52:19;;;;;;;1.00;1.00;;;39.00;99.90;;;;;;5055634;28;20048;-84
2021/08/02 11:54:47;;;;;;;3.13;1.50;;;39.70;99.90;;;;;;5054386;28;20037;-84
2021/08/02 11:57:31;;;;;;;1.50;1.40;;;38.60;99.90;;;;;;5054482;28;20497;-83
2021/08/02 12:00:07;;;;;;;2.38;1.10;;;39.10;99.90;;;;;;5045151;28;20466;-84
2021/08/02 12:02:38;;;;;;;1.88;1.25;;;39.20;99.90;;;;;;5051072;28;20112;-84
2021/08/02 12:05:06;;;;;;;1.77;1.02;;;38.00;99.90;;;;;;5051110;28;20083;-84
2021/08/02 12:07:32;;;;;;;1.70;1.10;;;32.90;99.90;;;;;;5056311;28;20027;-84
2021/08/02 12:10:20;;;;;;;2.35;1.20;;;30.10;99.90;;;;;;5054011;28;20029;-84
2021/08/02 12:13:10;;;;;;;1.15;1.05;;;28.80;99.90;;;;;;5044388;28;20123;-83
2021/08/02 12:15:36;;;;;;;1.58;1.20;;;32.90;99.90;;;;;;5054149;28;20028;-84
2021/08/02 12:18:02;;;;;;;1.45;1.00;;;37.00;99.90;;;;;;5053609;28;20038;-84
2021/08/02 12:20:31;;;;;;;1.13;1.05;;;38.30;99.90;;;;;;5052218;28;20029;-84
2021/08/02 12:22:57;;;;;;;2.80;1.10;;;39.10;99.90;;;;;;5052062;28;20037;-84
2021/08/02 12:25:43;;;;;;;1.50;1.20;;;39.60;99.90;;;;;;5055621;28;20021;-84
2021/08/02 12:28:09;;;;;;;1.00;0.95;;;38.90;99.90;;;;;;5054110;28;20041;-83
2021/08/02 12:30:36;;;;;;;1.33;1.10;;;38.50;99.90;;;;;;5054362;28;20025;-84
2021/08/02 12:33:03;;;;;;;1.60;1.00;;;39.20;99.90;;;;;;5054978;28;20024;-84
2021/08/02 12:35:28;;;;;;;1.45;1.30;;;38.30;99.90;;;;;;5052232;28;20025;-83
2021/08/02 12:37:57;;;;;;;1.20;1.00;;;38.30;99.90;;;;;;5053219;28;20025;-84
2021/08/02 12:40:23;;;;;;;1.30;1.20;;;38.40;99.90;;;;;;5053064;28;20443;-84
2021/08/02 12:42:49;;;;;;;1.48;1.10;;;39.10;99.90;;;;;;5051783;28;20069;-84
2021/08/02 12:45:17;;;;;;;2.83;0.90;;;38.10;99.90;;;;;;5054539;28;20017;-84
2021/08/02 12:47:43;;;;;;;1.05;0.95;;;38.80;99.90;;;;;;5053396;28;20036;-83
2021/08/02 12:50:11;;;;;;;1.13;1.00;;;38.80;99.90;;;;;;5050814;28;20507;-84
2021/08/02 12:52:37;;;;;;;1.45;0.90;;;37.70;99.90;;;;;;5055473;28;20540;-84
2021/08/02 12:55:05;;;;;;;2.00;1.15;;;37.70;99.90;;;;;;5053351;28;20090;-84
2021/08/02 12:57:33;;;;;;;2.67;1.17;;;35.80;99.90;;;;;;5054025;28;20033;-83
2021/08/02 13:00:00;;;;;;;2.25;1.33;;;35.70;99.90;;;;;;5053491;28;20396;-84